createdAt,value
2017-07-23T00:02:01.902Z,63.70
2017-07-23T00:04:29.048Z,64.70
2017-07-23T00:06:56.161Z,64.80
2017-07-23T00:09:22.587Z,64.70
2017-07-23T00:11:48.990Z,65.10
2017-07-23T00:14:15.401Z,64.90
2017-07-23T00:16:42.537Z,64.70
2017-07-23T00:19:09.686Z,64.60
2017-07-23T00:21:36.076Z,64.60
2017-07-23T00:24:02.489Z,64.70
2017-07-23T00:26:28.925Z,64.80
2017-07-23T00:28:55.354Z,65.10
2017-07-23T00:31:21.737Z,65.50
2017-07-23T00:33:48.143Z,65.30
2017-07-23T00:36:14.547Z,65.80
2017-07-23T00:38:40.979Z,66.10
2017-07-23T00:41:07.390Z,66.30
2017-07-23T00:43:34.521Z,66.70
2017-07-23T00:46:00.940Z,66.70
2017-07-23T00:48:27.342Z,67.00
2017-07-23T00:50:53.744Z,67.00
2017-07-23T00:53:20.892Z,66.00
2017-07-23T00:55:47.323Z,66.50
2017-07-23T00:58:14.486Z,65.80
2017-07-23T01:00:40.904Z,65.80
2017-07-23T01:03:08.053Z,66.30
2017-07-23T01:05:35.177Z,65.80
2017-07-23T01:08:01.584Z,65.80
2017-07-23T01:10:28.021Z,65.60
2017-07-23T01:12:54.438Z,65.70
2017-07-23T01:15:20.861Z,65.40
2017-07-23T01:17:47.279Z,65.40
2017-07-23T01:20:14.427Z,64.90
2017-07-23T01:22:40.832Z,64.80
2017-07-23T01:25:07.678Z,65.30
2017-07-23T01:27:34.088Z,66.10
2017-07-23T01:30:00.524Z,65.40
2017-07-23T01:32:26.936Z,65.20
2017-07-23T01:34:53.360Z,64.90
2017-07-23T01:37:19.778Z,65.10
2017-07-23T01:39:46.205Z,64.90
2017-07-23T01:42:12.646Z,64.90
2017-07-23T01:44:39.105Z,65.20
2017-07-23T01:47:05.539Z,65.20
2017-07-23T01:49:31.980Z,65.30
2017-07-23T01:51:58.443Z,65.40
2017-07-23T01:54:24.848Z,65.60
2017-07-23T01:56:51.370Z,65.80
2017-07-23T01:59:17.810Z,66.70
2017-07-23T02:01:44.216Z,66.20
2017-07-23T02:04:10.617Z,66.60
2017-07-23T02:06:37.777Z,66.20
2017-07-23T02:09:04.938Z,66.40
2017-07-23T02:11:31.364Z,66.40
2017-07-23T02:13:57.777Z,66.00
2017-07-23T02:16:24.206Z,65.80
2017-07-23T02:18:50.590Z,66.10
2017-07-23T02:21:16.988Z,66.00
2017-07-23T02:23:44.136Z,66.20
2017-07-23T02:26:11.292Z,66.70
2017-07-23T02:28:38.425Z,67.00
2017-07-23T02:31:05.585Z,66.80
2017-07-23T02:33:32.726Z,67.50
2017-07-23T02:35:59.125Z,67.50
2017-07-23T02:38:25.588Z,67.90
2017-07-23T02:40:52.026Z,68.20
2017-07-23T02:43:18.407Z,68.00
2017-07-23T02:45:44.809Z,68.00
2017-07-23T02:48:12.008Z,66.70
2017-07-23T02:50:38.440Z,66.70
2017-07-23T02:53:04.844Z,67.20
2017-07-23T02:55:31.231Z,67.40
2017-07-23T02:57:57.647Z,67.60
2017-07-23T03:00:24.044Z,67.60
2017-07-23T03:02:50.408Z,67.70
2017-07-23T03:05:16.813Z,67.60
2017-07-23T03:07:43.173Z,67.80
2017-07-23T03:10:09.574Z,67.70
2017-07-23T03:12:36.026Z,67.70
2017-07-23T03:15:02.474Z,67.50
2017-07-23T03:17:28.939Z,67.80
2017-07-23T03:19:56.085Z,67.30
2017-07-23T03:22:23.201Z,66.80
2017-07-23T03:24:49.605Z,66.80
2017-07-23T03:27:16.046Z,66.80
2017-07-23T03:29:42.441Z,66.20
2017-07-23T03:32:08.837Z,66.10
2017-07-23T03:34:35.236Z,66.10
2017-07-23T03:37:01.626Z,65.90
2017-07-23T03:39:28.004Z,66.10
2017-07-23T03:41:54.441Z,66.40
2017-07-23T03:44:20.896Z,66.80
2017-07-23T03:46:47.297Z,67.40
2017-07-23T03:49:13.719Z,67.80
2017-07-23T03:51:40.128Z,67.80
2017-07-23T03:54:07.297Z,68.60
2017-07-23T03:56:34.469Z,68.10
2017-07-23T03:59:00.868Z,68.10
2017-07-23T04:01:27.261Z,68.40
2017-07-23T04:03:53.661Z,68.90
2017-07-23T04:06:20.083Z,69.00
2017-07-23T04:08:46.498Z,69.30
2017-07-23T04:11:12.925Z,69.40
2017-07-23T04:13:40.073Z,69.10
2017-07-23T04:16:07.202Z,69.00
2017-07-23T04:18:33.612Z,69.00
2017-07-23T04:21:00.067Z,69.30
2017-07-23T04:23:26.464Z,69.50
2017-07-23T04:25:52.860Z,69.60
2017-07-23T04:28:20.007Z,69.70
2017-07-23T04:30:47.152Z,69.50
2017-07-23T04:33:13.567Z,69.50
2017-07-23T04:35:39.937Z,69.60
2017-07-23T04:38:06.344Z,69.60
2017-07-23T04:40:33.075Z,70.40
2017-07-23T04:42:59.502Z,70.80
2017-07-23T04:45:25.898Z,70.50
2017-07-23T04:47:52.342Z,70.10
2017-07-23T04:50:18.748Z,70.10
2017-07-23T04:52:45.152Z,70.60
2017-07-23T04:55:12.283Z,70.70
2017-07-23T04:57:38.666Z,70.60
2017-07-23T05:00:05.092Z,70.90
2017-07-23T05:02:31.486Z,70.70
2017-07-23T05:04:57.902Z,70.50
2017-07-23T05:07:24.319Z,70.50
2017-07-23T05:09:50.687Z,70.80
2017-07-23T05:12:17.088Z,70.70
2017-07-23T05:14:43.500Z,70.90
2017-07-23T05:17:09.921Z,70.70
2017-07-23T05:19:36.336Z,70.70
2017-07-23T05:22:03.507Z,70.20
2017-07-23T05:24:29.884Z,70.20
2017-07-23T05:26:56.337Z,70.60
2017-07-23T05:29:22.742Z,70.40
2017-07-23T05:31:49.175Z,70.20
2017-07-23T05:34:15.558Z,70.30
2017-07-23T05:36:41.974Z,69.90
2017-07-23T05:39:09.156Z,69.70
2017-07-23T05:41:35.552Z,69.60
2017-07-23T05:44:01.952Z,69.70
2017-07-23T05:46:28.347Z,69.60
2017-07-23T05:48:54.808Z,69.50
2017-07-23T05:51:21.580Z,69.50
2017-07-23T05:53:48.005Z,69.80
2017-07-23T05:56:14.617Z,68.70
2017-07-23T05:58:41.009Z,68.10
2017-07-23T06:01:08.159Z,67.20
2017-07-23T06:03:35.296Z,66.80
2017-07-23T06:06:02.472Z,65.60
2017-07-23T06:08:28.907Z,65.50
2017-07-23T06:10:55.316Z,64.20
2017-07-23T06:13:22.494Z,64.00
2017-07-23T06:15:48.913Z,64.00
2017-07-23T06:18:16.072Z,64.10
2017-07-23T06:20:42.439Z,64.10
2017-07-23T06:23:08.857Z,63.70
2017-07-23T06:25:35.269Z,63.60
2017-07-23T06:28:01.689Z,62.70
2017-07-23T06:30:28.833Z,62.80
2017-07-23T06:32:56.008Z,63.00
2017-07-23T06:35:22.432Z,63.00
2017-07-23T06:37:48.877Z,62.20
2017-07-23T06:40:15.310Z,61.50
2017-07-23T06:42:41.745Z,62.00
2017-07-23T06:45:08.217Z,59.70
2017-07-23T06:47:34.652Z,60.00
2017-07-23T06:50:01.104Z,60.00
2017-07-23T06:52:27.503Z,59.50
2017-07-23T06:54:53.923Z,59.70
2017-07-23T06:57:20.334Z,59.50
2017-07-23T06:59:46.759Z,59.30
2017-07-23T07:02:13.901Z,59.50
2017-07-23T07:04:40.270Z,59.50
2017-07-23T07:07:06.650Z,59.40
2017-07-23T07:09:33.082Z,59.40
2017-07-23T07:11:59.496Z,59.50
2017-07-23T07:14:25.886Z,58.80
2017-07-23T07:16:52.296Z,59.30
2017-07-23T07:19:19.521Z,59.00
2017-07-23T07:21:45.982Z,59.00
2017-07-23T07:24:12.418Z,59.00
2017-07-23T07:26:38.828Z,59.40
2017-07-23T07:29:05.222Z,60.00
2017-07-23T07:31:31.628Z,61.80
2017-07-23T07:33:58.017Z,62.50
2017-07-23T07:36:24.427Z,63.10
2017-07-23T07:38:50.913Z,63.90
2017-07-23T07:41:18.061Z,64.00
2017-07-23T07:43:45.229Z,63.40
2017-07-23T07:46:11.628Z,63.40
2017-07-23T07:48:38.035Z,62.20
2017-07-23T07:51:04.433Z,61.50
2017-07-23T07:53:30.843Z,61.70
2017-07-23T07:55:58.004Z,60.90
2017-07-23T07:58:24.529Z,60.90
2017-07-23T08:00:51.715Z,59.60
2017-07-23T08:03:18.166Z,59.60
2017-07-23T08:05:44.600Z,60.10
2017-07-23T08:08:11.037Z,60.00
2017-07-23T08:10:37.491Z,59.40
2017-07-23T08:13:03.904Z,59.50
2017-07-23T08:15:30.297Z,58.90
2017-07-23T08:17:56.672Z,58.10
2017-07-23T08:20:23.160Z,57.60
2017-07-23T08:22:49.601Z,57.40
2017-07-23T08:25:16.012Z,55.80
2017-07-23T08:27:43.177Z,55.70
2017-07-23T08:30:09.560Z,55.70
2017-07-23T08:32:35.979Z,54.60
2017-07-23T08:35:02.374Z,53.70
2017-07-23T08:37:28.778Z,54.10
2017-07-23T08:39:55.922Z,54.40
2017-07-23T08:42:22.337Z,53.70
2017-07-23T08:44:48.756Z,52.10
2017-07-23T08:47:15.158Z,52.10
2017-07-23T08:49:41.558Z,50.90
2017-07-23T08:52:08.736Z,51.10
2017-07-23T08:54:35.185Z,51.10
2017-07-23T08:57:01.619Z,52.00
2017-07-23T08:59:34.647Z,51.60
2017-07-23T09:02:01.042Z,52.30
2017-07-23T09:04:27.421Z,51.60
2017-07-23T09:06:54.610Z,52.10
2017-07-23T09:09:21.033Z,52.10
2017-07-23T09:11:47.452Z,52.30
2017-07-23T09:14:14.610Z,50.50
2017-07-23T09:16:41.768Z,51.00
2017-07-23T09:19:08.168Z,51.00
2017-07-23T09:21:34.579Z,50.60
2017-07-23T09:24:00.981Z,51.60
2017-07-23T09:26:27.416Z,51.80
2017-07-23T09:28:53.808Z,50.30
2017-07-23T09:31:20.925Z,48.50
2017-07-23T09:33:47.332Z,48.50
2017-07-23T09:36:13.757Z,49.20
2017-07-23T09:38:40.164Z,48.80
2017-07-23T09:41:07.339Z,48.60
2017-07-23T09:43:33.736Z,48.60
2017-07-23T09:46:00.112Z,49.10
2017-07-23T09:48:26.511Z,50.00
2017-07-23T09:50:53.650Z,49.20
2017-07-23T09:53:20.043Z,49.20
2017-07-23T09:55:46.450Z,49.20
2017-07-23T09:58:12.854Z,48.70
2017-07-23T10:00:44.382Z,48.80
2017-07-23T10:06:13.556Z,47.90
2017-07-23T10:08:56.551Z,47.70
2017-07-23T10:11:27.308Z,46.20
2017-07-23T10:13:54.937Z,46.60
2017-07-23T10:16:33.796Z,47.70
2017-07-23T10:19:11.960Z,47.90
2017-07-23T10:21:40.054Z,46.30
2017-07-23T10:24:16.950Z,44.70
2017-07-23T10:29:25.797Z,45.20
2017-07-23T10:31:55.813Z,45.60
2017-07-23T10:34:22.221Z,45.60
2017-07-23T10:36:49.372Z,45.50
2017-07-23T10:39:16.510Z,45.10
2017-07-23T10:41:42.876Z,45.00
2017-07-23T10:44:09.275Z,43.30
2017-07-23T10:46:36.423Z,45.20
2017-07-23T10:49:03.556Z,43.20
2017-07-23T10:51:29.974Z,43.10
2017-07-23T10:53:56.371Z,41.90
2017-07-23T10:56:22.756Z,42.50
2017-07-23T10:58:49.170Z,43.20
2017-07-23T11:01:15.582Z,42.30
2017-07-23T11:03:41.981Z,41.10
2017-07-23T11:06:09.112Z,40.80
2017-07-23T11:08:35.534Z,40.70
2017-07-23T11:11:01.956Z,42.40
2017-07-23T11:13:28.359Z,42.20
2017-07-23T11:15:54.736Z,42.90
2017-07-23T11:18:21.137Z,42.40
2017-07-23T11:20:47.528Z,41.70
2017-07-23T11:23:14.624Z,41.50
2017-07-23T11:25:41.061Z,40.90
2017-07-23T11:28:22.384Z,40.90
2017-07-23T11:30:49.563Z,41.30
2017-07-23T11:33:15.946Z,41.30
2017-07-23T11:35:42.324Z,40.10
2017-07-23T11:38:08.729Z,39.90
2017-07-23T11:40:35.125Z,40.20
2017-07-23T11:43:01.540Z,40.60
2017-07-23T11:45:27.959Z,38.40
2017-07-23T11:47:54.352Z,38.00
2017-07-23T11:50:21.484Z,38.10
2017-07-23T11:52:47.871Z,38.10
2017-07-23T11:55:14.305Z,38.00
2017-07-23T11:57:40.709Z,38.50
2017-07-23T12:00:07.896Z,38.60
2017-07-23T12:02:34.631Z,38.60
2017-07-23T12:05:01.038Z,39.60
2017-07-23T12:07:28.191Z,37.70
2017-07-23T12:09:55.346Z,37.90
2017-07-23T12:12:21.759Z,37.90
2017-07-23T12:14:48.914Z,38.50
2017-07-23T12:17:15.322Z,38.50
2017-07-23T12:19:41.716Z,37.80
2017-07-23T12:22:08.139Z,38.60
2017-07-23T12:24:34.508Z,40.30
2017-07-23T12:27:00.893Z,40.50
2017-07-23T12:29:28.082Z,39.30
2017-07-23T12:31:54.488Z,39.20
2017-07-23T12:34:20.892Z,38.00
2017-07-23T12:36:47.618Z,38.80
2017-07-23T12:39:14.015Z,38.30
2017-07-23T12:41:40.393Z,39.00
2017-07-23T12:44:06.804Z,39.00
2017-07-23T12:46:33.222Z,39.30
2017-07-23T12:48:59.629Z,40.40
2017-07-23T12:51:26.000Z,41.00
2017-07-23T12:53:52.398Z,41.70
2017-07-23T12:56:18.827Z,42.60
2017-07-23T12:58:45.225Z,42.10
2017-07-23T13:01:12.419Z,43.40
2017-07-23T13:03:40.458Z,44.00
2017-07-23T13:06:07.594Z,44.20
2017-07-23T13:08:33.995Z,43.50
2017-07-23T13:11:00.400Z,44.40
2017-07-23T13:13:26.864Z,45.10
2017-07-23T13:15:53.262Z,46.70
2017-07-23T13:18:19.722Z,48.20
2017-07-23T13:20:46.131Z,49.90
2017-07-23T13:23:12.518Z,49.80
2017-07-23T13:25:38.936Z,49.30
2017-07-23T13:28:05.357Z,50.00
2017-07-23T13:30:31.785Z,49.90
2017-07-23T13:32:58.258Z,49.70
2017-07-23T13:35:24.688Z,48.70
2017-07-23T13:37:51.162Z,48.60
2017-07-23T13:40:17.546Z,48.30
2017-07-23T13:42:43.956Z,48.20
2017-07-23T13:45:10.403Z,47.20
2017-07-23T13:47:36.894Z,46.60
2017-07-23T13:50:03.364Z,46.00
2017-07-23T13:52:29.760Z,46.70
2017-07-23T13:54:56.223Z,46.20
2017-07-23T13:57:22.644Z,45.80
2017-07-23T13:59:49.076Z,45.60
2017-07-23T14:02:15.464Z,46.60
2017-07-23T14:04:42.591Z,45.10
2017-07-23T14:07:09.002Z,45.60
2017-07-23T14:09:35.420Z,44.60
2017-07-23T14:12:01.793Z,44.50
2017-07-23T14:14:28.172Z,44.50
2017-07-23T14:16:54.563Z,44.50
2017-07-23T14:19:20.938Z,44.40
2017-07-23T14:21:47.342Z,42.20
2017-07-23T14:24:14.472Z,43.50
2017-07-23T14:26:40.885Z,43.40
2017-07-23T14:29:07.296Z,43.40
2017-07-23T14:31:33.705Z,43.80
2017-07-23T14:34:00.084Z,44.10
2017-07-23T14:36:26.499Z,42.40
2017-07-23T14:38:52.913Z,42.40
2017-07-23T14:41:19.328Z,43.20
2017-07-23T14:43:45.733Z,44.20
2017-07-23T14:46:12.140Z,43.60
2017-07-23T14:48:38.545Z,43.20
2017-07-23T14:51:04.963Z,42.50
2017-07-23T14:53:31.376Z,42.00
2017-07-23T14:55:57.775Z,42.50
2017-07-23T14:58:24.168Z,43.10
2017-07-23T15:00:50.613Z,43.50
2017-07-23T15:03:17.066Z,43.40
2017-07-23T15:05:43.478Z,43.30
2017-07-23T15:08:09.898Z,41.60
2017-07-23T15:10:36.341Z,41.60
2017-07-23T15:13:02.730Z,41.00
2017-07-23T15:15:29.152Z,42.00
2017-07-23T15:17:55.532Z,42.00
2017-07-23T15:20:21.929Z,42.30
2017-07-23T15:22:48.355Z,41.40
2017-07-23T15:25:14.730Z,41.90
2017-07-23T15:27:41.093Z,41.60
2017-07-23T15:30:07.508Z,41.90
2017-07-23T15:32:33.944Z,41.40
2017-07-23T15:35:00.386Z,42.30
2017-07-23T15:37:26.843Z,41.50
2017-07-23T15:39:53.206Z,42.30
2017-07-23T15:42:20.377Z,41.70
2017-07-23T15:44:46.793Z,41.70
2017-07-23T15:47:14.101Z,41.30
2017-07-23T15:49:40.534Z,41.30
2017-07-23T15:52:06.935Z,40.40
2017-07-23T15:54:33.313Z,40.40
2017-07-23T15:56:59.708Z,41.00
2017-07-23T15:59:26.108Z,40.30
2017-07-23T16:01:53.238Z,40.80
2017-07-23T16:04:19.644Z,40.40
2017-07-23T16:06:46.071Z,41.30
2017-07-23T16:09:12.492Z,41.20
2017-07-23T16:11:38.887Z,41.80
2017-07-23T16:14:06.038Z,41.60
2017-07-23T16:16:33.202Z,42.20
2017-07-23T16:19:00.359Z,43.10
2017-07-23T16:21:26.826Z,43.10
2017-07-23T16:23:53.234Z,43.20
2017-07-23T16:26:19.613Z,43.60
2017-07-23T16:28:46.018Z,43.50
2017-07-23T16:31:12.404Z,43.10
2017-07-23T16:33:39.573Z,42.30
2017-07-23T16:36:06.711Z,41.80
2017-07-23T16:38:33.911Z,41.90
2017-07-23T16:41:00.318Z,41.80
2017-07-23T16:43:26.735Z,42.50
2017-07-23T16:45:53.130Z,42.60
2017-07-23T16:48:19.548Z,42.30
2017-07-23T16:50:45.948Z,42.30
2017-07-23T16:53:12.354Z,40.40
2017-07-23T16:55:44.559Z,38.70
2017-07-23T16:58:10.955Z,38.70
2017-07-23T17:00:38.097Z,40.20
2017-07-23T17:03:04.484Z,40.10
2017-07-23T17:05:30.862Z,39.40
2017-07-23T17:07:57.980Z,39.60
2017-07-23T17:10:24.382Z,39.60
2017-07-23T17:12:50.895Z,39.90
2017-07-23T17:15:17.372Z,40.40
2017-07-23T17:17:43.783Z,40.00
2017-07-23T17:20:10.209Z,40.10
2017-07-23T17:22:36.599Z,40.60
2017-07-23T17:25:03.004Z,41.00
2017-07-23T17:27:29.400Z,41.70
2017-07-23T17:29:55.808Z,41.20
2017-07-23T17:32:22.199Z,41.90
2017-07-23T17:34:48.647Z,42.70
2017-07-23T17:37:15.065Z,42.20
2017-07-23T17:39:41.440Z,42.60
2017-07-23T17:42:07.830Z,42.50
2017-07-23T17:44:34.243Z,42.30
2017-07-23T17:47:00.650Z,41.70
2017-07-23T17:49:27.788Z,41.90
2017-07-23T17:51:55.998Z,42.10
2017-07-23T17:54:22.425Z,42.10
2017-07-23T17:56:48.838Z,42.80
2017-07-23T17:59:15.957Z,42.90
2017-07-23T18:01:42.389Z,42.90
2017-07-23T18:04:08.780Z,42.20
2017-07-23T18:06:35.166Z,43.10
2017-07-23T18:09:01.576Z,43.00
2017-07-23T18:11:27.991Z,43.60
2017-07-23T18:13:54.406Z,43.30
2017-07-23T18:16:20.889Z,43.20
2017-07-23T18:18:47.368Z,43.40
2017-07-23T18:21:13.752Z,43.80
2017-07-23T18:23:40.196Z,44.20
2017-07-23T18:26:06.608Z,44.20
2017-07-23T18:28:33.013Z,44.70
2017-07-23T18:30:59.457Z,44.50
2017-07-23T18:33:26.008Z,44.80
2017-07-23T18:35:52.427Z,45.90
2017-07-23T18:38:18.805Z,46.00
2017-07-23T18:40:45.969Z,45.70
2017-07-23T18:43:13.116Z,46.10
2017-07-23T18:45:40.255Z,45.90
2017-07-23T18:48:06.636Z,45.90
2017-07-23T18:50:33.027Z,45.80
2017-07-23T18:53:00.232Z,45.90
2017-07-23T18:55:26.635Z,45.80
2017-07-23T18:57:53.073Z,46.00
2017-07-23T19:00:19.481Z,46.10
2017-07-23T19:02:46.590Z,46.30
2017-07-23T19:05:13.007Z,46.30
2017-07-23T19:07:39.424Z,45.70
2017-07-23T19:10:05.912Z,45.50
2017-07-23T19:12:32.396Z,45.20
2017-07-23T19:14:58.800Z,45.00
2017-07-23T19:17:25.949Z,47.00
2017-07-23T19:19:53.103Z,47.40
2017-07-23T19:22:20.242Z,47.90
2017-07-23T19:24:47.379Z,48.40
2017-07-23T19:27:13.782Z,47.70
2017-07-23T19:29:40.205Z,48.00
2017-07-23T19:32:06.604Z,48.80
2017-07-23T19:34:33.797Z,50.50
2017-07-23T19:37:00.238Z,50.40
2017-07-23T19:39:26.641Z,51.00
2017-07-23T19:41:53.078Z,52.30
2017-07-23T19:44:19.517Z,52.50
2017-07-23T19:46:45.947Z,52.70
2017-07-23T19:49:12.365Z,51.90
2017-07-23T19:51:38.783Z,52.00
2017-07-23T19:54:05.924Z,52.60
2017-07-23T19:56:33.068Z,52.60
2017-07-23T19:58:59.465Z,52.30
2017-07-23T20:01:25.880Z,52.20
2017-07-23T20:03:52.359Z,51.70
2017-07-23T20:06:18.764Z,51.10
2017-07-23T20:08:45.346Z,51.00
2017-07-23T20:11:12.505Z,50.70
2017-07-23T20:13:39.696Z,50.80
2017-07-23T20:16:06.084Z,50.80
2017-07-23T20:18:33.238Z,52.90
2017-07-23T20:21:00.403Z,53.40
2017-07-23T20:23:26.832Z,53.40
2017-07-23T20:25:53.236Z,53.80
2017-07-23T20:28:19.671Z,54.50
2017-07-23T20:30:46.812Z,54.70
2017-07-23T20:33:13.238Z,54.70
2017-07-23T20:35:39.643Z,54.40
2017-07-23T20:38:06.112Z,54.10
2017-07-23T20:40:32.543Z,53.50
2017-07-23T20:42:58.925Z,54.50
2017-07-23T20:45:25.368Z,55.30
2017-07-23T20:47:51.764Z,55.50
2017-07-23T20:50:18.904Z,61.70
2017-07-23T20:52:46.092Z,61.20
2017-07-23T20:55:12.502Z,61.20
2017-07-23T20:57:39.669Z,63.00
2017-07-23T21:00:06.121Z,63.00
2017-07-23T21:02:32.547Z,63.40
2017-07-23T21:04:58.956Z,63.20
2017-07-23T21:07:26.089Z,63.50
2017-07-23T21:09:53.272Z,63.70
2017-07-23T21:12:19.671Z,63.70
2017-07-23T21:14:46.844Z,63.80
2017-07-23T21:17:13.250Z,63.80
2017-07-23T21:19:40.468Z,64.30
2017-07-23T21:22:06.881Z,64.30
2017-07-23T21:24:33.300Z,63.70
2017-07-23T21:26:59.688Z,63.80
2017-07-23T21:29:26.165Z,66.10
2017-07-23T21:31:52.562Z,68.30
2017-07-23T21:34:18.961Z,68.90
2017-07-23T21:36:46.089Z,69.40
2017-07-23T21:39:12.519Z,69.40
2017-07-23T21:41:38.931Z,70.20
2017-07-23T21:44:06.086Z,70.20
2017-07-23T21:46:33.247Z,71.00
2017-07-23T21:48:59.656Z,70.90
2017-07-23T21:51:26.802Z,72.90
2017-07-23T21:53:53.947Z,73.20
2017-07-23T21:56:20.339Z,72.90
2017-07-23T21:58:46.769Z,73.80
2017-07-23T22:01:13.180Z,74.40
2017-07-23T22:03:39.582Z,74.50
2017-07-23T22:06:06.717Z,73.40
2017-07-23T22:08:33.125Z,73.40
2017-07-23T22:10:59.552Z,73.10
2017-07-23T22:13:25.926Z,73.20
2017-07-23T22:15:53.085Z,73.00
2017-07-23T22:18:20.239Z,73.20
2017-07-23T22:20:47.377Z,72.20
2017-07-23T22:23:13.744Z,72.20
2017-07-23T22:25:40.480Z,72.60
2017-07-23T22:28:06.980Z,72.60
2017-07-23T22:30:34.114Z,73.10
2017-07-23T22:33:00.497Z,72.40
2017-07-23T22:35:26.909Z,72.60
2017-07-23T22:37:54.047Z,72.00
2017-07-23T22:40:21.192Z,72.10
2017-07-23T22:42:48.377Z,72.50
2017-07-23T22:45:14.804Z,71.80
2017-07-23T22:47:41.242Z,71.20
2017-07-23T22:50:07.646Z,71.00
2017-07-23T22:52:34.797Z,72.00
2017-07-23T22:55:01.969Z,71.80
2017-07-23T22:57:28.416Z,71.60
2017-07-23T22:59:54.813Z,72.30
2017-07-23T23:02:21.957Z,72.90
2017-07-23T23:04:48.393Z,72.70
2017-07-23T23:07:15.548Z,72.20
2017-07-23T23:09:41.914Z,72.20
2017-07-23T23:12:08.513Z,71.80
2017-07-23T23:14:35.686Z,71.90
2017-07-23T23:17:02.080Z,71.90
2017-07-23T23:19:28.502Z,71.80
2017-07-23T23:21:54.890Z,71.90
2017-07-23T23:24:21.306Z,71.90
2017-07-23T23:26:48.458Z,72.20
2017-07-23T23:29:14.890Z,72.20
2017-07-23T23:31:41.276Z,72.30
2017-07-23T23:34:07.696Z,72.70
2017-07-23T23:36:34.099Z,72.70
2017-07-23T23:39:00.486Z,72.60
2017-07-23T23:41:26.924Z,73.00
2017-07-23T23:43:53.339Z,73.20
2017-07-23T23:46:19.734Z,73.90
2017-07-23T23:48:46.167Z,74.30
2017-07-23T23:51:12.568Z,73.60
2017-07-23T23:53:38.938Z,74.00
2017-07-23T23:56:05.355Z,73.70
2017-07-23T23:58:31.780Z,73.80
